sensor_id;sensor_type;location;lat;lon;timestamp;P1;durP1;ratioP1;P2;durP2;ratioP2
72920;SDS011;61064;51.654;5.476;2023-02-19T00:01:29;20.27;;;7.32;;
72920;SDS011;61064;51.654;5.476;2023-02-19T00:04:06;19.83;;;6.70;;
72920;SDS011;61064;51.654;5.476;2023-02-19T00:06:34;21.90;;;6.75;;
72920;SDS011;61064;51.654;5.476;2023-02-19T00:09:00;16.55;;;6.57;;
72920;SDS011;61064;51.654;5.476;2023-02-19T00:11:27;19.90;;;6.40;;
72920;SDS011;61064;51.654;5.476;2023-02-19T00:13:55;20.10;;;6.70;;
72920;SDS011;61064;51.654;5.476;2023-02-19T00:16:26;18.40;;;5.95;;
72920;SDS011;61064;51.654;5.476;2023-02-19T00:18:54;18.98;;;6.68;;
72920;SDS011;61064;51.654;5.476;2023-02-19T00:21:21;19.13;;;6.15;;
72920;SDS011;61064;51.654;5.476;2023-02-19T00:23:57;23.33;;;6.28;;
72920;SDS011;61064;51.654;5.476;2023-02-19T00:26:24;22.10;;;5.93;;
72920;SDS011;61064;51.654;5.476;2023-02-19T00:28:50;17.88;;;5.60;;
72920;SDS011;61064;51.654;5.476;2023-02-19T00:31:24;17.85;;;5.13;;
72920;SDS011;61064;51.654;5.476;2023-02-19T00:33:52;14.73;;;5.75;;
72920;SDS011;61064;51.654;5.476;2023-02-19T00:36:20;20.92;;;5.45;;
72920;SDS011;61064;51.654;5.476;2023-02-19T00:38:46;17.57;;;5.40;;
72920;SDS011;61064;51.654;5.476;2023-02-19T00:41:13;15.02;;;5.03;;
72920;SDS011;61064;51.654;5.476;2023-02-19T00:43:55;17.70;;;4.80;;
72920;SDS011;61064;51.654;5.476;2023-02-19T00:46:23;20.38;;;4.82;;
72920;SDS011;61064;51.654;5.476;2023-02-19T00:48:56;17.08;;;4.72;;
72920;SDS011;61064;51.654;5.476;2023-02-19T00:51:24;15.77;;;5.13;;
72920;SDS011;61064;51.654;5.476;2023-02-19T00:53:52;18.92;;;5.38;;
72920;SDS011;61064;51.654;5.476;2023-02-19T00:56:18;17.40;;;5.10;;
72920;SDS011;61064;51.654;5.476;2023-02-19T00:58:44;19.23;;;5.75;;
72920;SDS011;61064;51.654;5.476;2023-02-19T01:01:09;21.53;;;4.80;;
72920;SDS011;61064;51.654;5.476;2023-02-19T01:03:35;16.83;;;4.90;;
72920;SDS011;61064;51.654;5.476;2023-02-19T01:06:02;16.80;;;5.05;;
72920;SDS011;61064;51.654;5.476;2023-02-19T01:08:28;20.63;;;5.22;;
72920;SDS011;61064;51.654;5.476;2023-02-19T01:10:58;14.65;;;5.20;;
72920;SDS011;61064;51.654;5.476;2023-02-19T01:13:23;21.33;;;5.63;;
72920;SDS011;61064;51.654;5.476;2023-02-19T01:15:49;10.57;;;3.58;;
72920;SDS011;61064;51.654;5.476;2023-02-19T01:18:15;18.07;;;4.57;;
72920;SDS011;61064;51.654;5.476;2023-02-19T01:20:40;17.38;;;4.50;;
72920;SDS011;61064;51.654;5.476;2023-02-19T01:23:08;16.33;;;4.28;;
72920;SDS011;61064;51.654;5.476;2023-02-19T01:25:36;18.43;;;4.30;;
72920;SDS011;61064;51.654;5.476;2023-02-19T01:28:06;20.75;;;4.60;;
72920;SDS011;61064;51.654;5.476;2023-02-19T01:30:33;16.20;;;4.20;;
72920;SDS011;61064;51.654;5.476;2023-02-19T01:33:01;16.10;;;3.67;;
72920;SDS011;61064;51.654;5.476;2023-02-19T01:35:27;21.77;;;3.88;;
72920;SDS011;61064;51.654;5.476;2023-02-19T01:37:53;19.03;;;4.27;;
72920;SDS011;61064;51.654;5.476;2023-02-19T01:40:18;17.10;;;3.77;;
72920;SDS011;61064;51.654;5.476;2023-02-19T01:42:44;18.47;;;3.80;;
72920;SDS011;61064;51.654;5.476;2023-02-19T01:47:52;17.80;;;3.80;;
72920;SDS011;61064;51.654;5.476;2023-02-19T01:50:23;14.98;;;3.10;;
72920;SDS011;61064;51.654;5.476;2023-02-19T01:52:51;19.20;;;3.40;;
72920;SDS011;61064;51.654;5.476;2023-02-19T01:55:17;19.53;;;4.40;;
72920;SDS011;61064;51.654;5.476;2023-02-19T01:57:45;14.98;;;3.70;;
72920;SDS011;61064;51.654;5.476;2023-02-19T02:00:14;17.85;;;4.45;;
72920;SDS011;61064;51.654;5.476;2023-02-19T02:02:41;17.23;;;3.83;;
72920;SDS011;61064;51.654;5.476;2023-02-19T02:05:10;17.27;;;4.95;;
72920;SDS011;61064;51.654;5.476;2023-02-19T02:07:45;15.50;;;4.20;;
72920;SDS011;61064;51.654;5.476;2023-02-19T02:10:29;16.70;;;4.07;;
72920;SDS011;61064;51.654;5.476;2023-02-19T02:12:57;20.00;;;4.57;;
72920;SDS011;61064;51.654;5.476;2023-02-19T02:15:23;19.52;;;4.28;;
72920;SDS011;61064;51.654;5.476;2023-02-19T02:17:56;19.60;;;3.85;;
72920;SDS011;61064;51.654;5.476;2023-02-19T02:20:51;15.10;;;3.42;;
72920;SDS011;61064;51.654;5.476;2023-02-19T02:32:55;16.98;;;3.55;;
72920;SDS011;61064;51.654;5.476;2023-02-19T02:35:27;20.73;;;3.63;;
72920;SDS011;61064;51.654;5.476;2023-02-19T02:37:59;23.20;;;3.58;;
72920;SDS011;61064;51.654;5.476;2023-02-19T02:40:28;14.03;;;3.50;;
72920;SDS011;61064;51.654;5.476;2023-02-19T02:42:56;17.30;;;3.40;;
72920;SDS011;61064;51.654;5.476;2023-02-19T02:45:24;18.42;;;3.60;;
72920;SDS011;61064;51.654;5.476;2023-02-19T02:48:47;18.77;;;3.43;;
72920;SDS011;61064;51.654;5.476;2023-02-19T02:50:58;22.38;;;3.60;;
72920;SDS011;61064;51.654;5.476;2023-02-19T02:53:37;16.90;;;3.10;;
72920;SDS011;61064;51.654;5.476;2023-02-19T02:56:30;18.67;;;3.00;;
72920;SDS011;61064;51.654;5.476;2023-02-19T02:58:57;15.57;;;3.03;;
72920;SDS011;61064;51.654;5.476;2023-02-19T03:01:28;18.33;;;2.80;;
72920;SDS011;61064;51.654;5.476;2023-02-19T03:06:54;15.13;;;2.67;;
72920;SDS011;61064;51.654;5.476;2023-02-19T03:09:27;15.07;;;2.67;;
72920;SDS011;61064;51.654;5.476;2023-02-19T03:11:56;12.57;;;2.33;;
72920;SDS011;61064;51.654;5.476;2023-02-19T03:14:45;18.13;;;3.93;;
72920;SDS011;61064;51.654;5.476;2023-02-19T03:17:38;17.00;;;2.97;;
72920;SDS011;61064;51.654;5.476;2023-02-19T03:20:27;12.02;;;1.67;;
72920;SDS011;61064;51.654;5.476;2023-02-19T03:22:56;15.23;;;2.22;;
72920;SDS011;61064;51.654;5.476;2023-02-19T03:25:26;11.80;;;1.70;;
72920;SDS011;61064;51.654;5.476;2023-02-19T03:28:14;15.87;;;2.80;;
72920;SDS011;61064;51.654;5.476;2023-02-19T03:30:46;11.27;;;1.83;;
72920;SDS011;61064;51.654;5.476;2023-02-19T03:33:21;15.25;;;2.30;;
72920;SDS011;61064;51.654;5.476;2023-02-19T03:35:57;13.27;;;2.17;;
72920;SDS011;61064;51.654;5.476;2023-02-19T03:38:35;13.13;;;1.88;;
72920;SDS011;61064;51.654;5.476;2023-02-19T03:41:15;16.17;;;2.13;;
72920;SDS011;61064;51.654;5.476;2023-02-19T03:47:02;15.52;;;2.10;;
72920;SDS011;61064;51.654;5.476;2023-02-19T03:49:41;14.82;;;2.40;;
72920;SDS011;61064;51.654;5.476;2023-02-19T03:55:11;16.97;;;2.60;;
72920;SDS011;61064;51.654;5.476;2023-02-19T03:58:03;15.50;;;2.15;;
72920;SDS011;61064;51.654;5.476;2023-02-19T04:00:48;17.67;;;2.70;;
72920;SDS011;61064;51.654;5.476;2023-02-19T04:03:28;14.93;;;2.30;;
72920;SDS011;61064;51.654;5.476;2023-02-19T04:06:02;14.32;;;1.77;;
72920;SDS011;61064;51.654;5.476;2023-02-19T04:08:33;16.50;;;2.27;;
72920;SDS011;61064;51.654;5.476;2023-02-19T04:11:01;11.95;;;1.48;;
72920;SDS011;61064;51.654;5.476;2023-02-19T04:13:35;12.10;;;1.92;;
72920;SDS011;61064;51.654;5.476;2023-02-19T04:16:08;14.65;;;1.85;;
72920;SDS011;61064;51.654;5.476;2023-02-19T04:18:41;12.25;;;2.08;;
72920;SDS011;61064;51.654;5.476;2023-02-19T04:21:10;12.67;;;1.73;;
72920;SDS011;61064;51.654;5.476;2023-02-19T04:23:39;11.85;;;2.40;;
72920;SDS011;61064;51.654;5.476;2023-02-19T04:26:08;11.57;;;1.48;;
72920;SDS011;61064;51.654;5.476;2023-02-19T04:28:36;13.77;;;2.25;;
72920;SDS011;61064;51.654;5.476;2023-02-19T04:31:02;14.30;;;1.85;;
72920;SDS011;61064;51.654;5.476;2023-02-19T04:33:27;14.57;;;1.70;;
72920;SDS011;61064;51.654;5.476;2023-02-19T04:35:53;13.93;;;1.67;;
72920;SDS011;61064;51.654;5.476;2023-02-19T04:38:18;11.83;;;1.60;;
72920;SDS011;61064;51.654;5.476;2023-02-19T04:40:44;12.73;;;1.50;;
72920;SDS011;61064;51.654;5.476;2023-02-19T04:43:10;15.70;;;2.47;;
72920;SDS011;61064;51.654;5.476;2023-02-19T04:45:36;12.07;;;1.47;;
72920;SDS011;61064;51.654;5.476;2023-02-19T04:48:03;10.98;;;1.40;;
72920;SDS011;61064;51.654;5.476;2023-02-19T04:50:29;11.32;;;2.63;;
72920;SDS011;61064;51.654;5.476;2023-02-19T04:52:54;11.80;;;1.90;;
72920;SDS011;61064;51.654;5.476;2023-02-19T04:55:19;13.30;;;2.25;;
72920;SDS011;61064;51.654;5.476;2023-02-19T04:57:45;11.30;;;1.87;;
72920;SDS011;61064;51.654;5.476;2023-02-19T05:00:10;15.70;;;2.47;;
72920;SDS011;61064;51.654;5.476;2023-02-19T05:02:36;13.50;;;2.33;;
72920;SDS011;61064;51.654;5.476;2023-02-19T05:05:01;15.70;;;2.10;;
72920;SDS011;61064;51.654;5.476;2023-02-19T05:07:28;17.60;;;2.40;;
72920;SDS011;61064;51.654;5.476;2023-02-19T05:09:53;11.07;;;2.10;;
72920;SDS011;61064;51.654;5.476;2023-02-19T05:12:18;13.60;;;1.80;;
72920;SDS011;61064;51.654;5.476;2023-02-19T05:14:44;14.80;;;1.90;;
72920;SDS011;61064;51.654;5.476;2023-02-19T05:17:10;13.00;;;1.90;;
72920;SDS011;61064;51.654;5.476;2023-02-19T05:19:35;12.90;;;1.80;;
72920;SDS011;61064;51.654;5.476;2023-02-19T05:22:00;13.03;;;1.93;;
72920;SDS011;61064;51.654;5.476;2023-02-19T05:24:26;15.23;;;2.10;;
72920;SDS011;61064;51.654;5.476;2023-02-19T05:26:52;12.05;;;1.90;;
72920;SDS011;61064;51.654;5.476;2023-02-19T05:29:17;8.20;;;1.30;;
72920;SDS011;61064;51.654;5.476;2023-02-19T05:31:43;16.50;;;1.80;;
72920;SDS011;61064;51.654;5.476;2023-02-19T05:34:08;14.90;;;1.80;;
72920;SDS011;61064;51.654;5.476;2023-02-19T05:36:34;13.33;;;1.77;;
72920;SDS011;61064;51.654;5.476;2023-02-19T05:39:01;12.70;;;1.80;;
72920;SDS011;61064;51.654;5.476;2023-02-19T05:41:28;13.80;;;2.13;;
72920;SDS011;61064;51.654;5.476;2023-02-19T05:43:54;12.53;;;2.03;;
72920;SDS011;61064;51.654;5.476;2023-02-19T05:46:25;14.45;;;2.00;;
72920;SDS011;61064;51.654;5.476;2023-02-19T05:48:53;10.82;;;2.17;;
72920;SDS011;61064;51.654;5.476;2023-02-19T05:51:20;11.05;;;2.00;;
72920;SDS011;61064;51.654;5.476;2023-02-19T05:53:47;13.23;;;2.40;;
72920;SDS011;61064;51.654;5.476;2023-02-19T05:56:22;12.85;;;2.25;;
72920;SDS011;61064;51.654;5.476;2023-02-19T05:59:06;12.02;;;2.28;;
72920;SDS011;61064;51.654;5.476;2023-02-19T06:01:42;12.75;;;2.63;;
72920;SDS011;61064;51.654;5.476;2023-02-19T06:04:08;10.10;;;2.10;;
72920;SDS011;61064;51.654;5.476;2023-02-19T06:06:34;15.40;;;2.20;;
72920;SDS011;61064;51.654;5.476;2023-02-19T06:09:01;14.35;;;2.33;;
72920;SDS011;61064;51.654;5.476;2023-02-19T06:11:28;17.10;;;2.15;;
72920;SDS011;61064;51.654;5.476;2023-02-19T06:13:53;15.87;;;1.90;;
72920;SDS011;61064;51.654;5.476;2023-02-19T06:16:19;14.70;;;2.83;;
72920;SDS011;61064;51.654;5.476;2023-02-19T06:18:45;13.30;;;2.17;;
72920;SDS011;61064;51.654;5.476;2023-02-19T06:21:12;15.23;;;2.10;;
72920;SDS011;61064;51.654;5.476;2023-02-19T06:23:38;15.65;;;1.90;;
72920;SDS011;61064;51.654;5.476;2023-02-19T06:26:14;14.13;;;2.40;;
72920;SDS011;61064;51.654;5.476;2023-02-19T06:28:42;18.40;;;3.70;;
72920;SDS011;61064;51.654;5.476;2023-02-19T06:31:08;18.75;;;2.45;;
72920;SDS011;61064;51.654;5.476;2023-02-19T06:33:35;18.95;;;2.42;;
72920;SDS011;61064;51.654;5.476;2023-02-19T06:36:02;17.75;;;2.33;;
72920;SDS011;61064;51.654;5.476;2023-02-19T06:38:28;15.20;;;2.50;;
72920;SDS011;61064;51.654;5.476;2023-02-19T06:40:58;15.38;;;2.28;;
72920;SDS011;61064;51.654;5.476;2023-02-19T06:43:25;17.23;;;2.63;;
72920;SDS011;61064;51.654;5.476;2023-02-19T06:45:50;14.80;;;2.53;;
72920;SDS011;61064;51.654;5.476;2023-02-19T06:48:16;11.53;;;2.23;;
72920;SDS011;61064;51.654;5.476;2023-02-19T06:50:41;17.85;;;2.40;;
72920;SDS011;61064;51.654;5.476;2023-02-19T06:53:07;10.20;;;1.90;;
72920;SDS011;61064;51.654;5.476;2023-02-19T06:55:33;12.23;;;2.40;;
72920;SDS011;61064;51.654;5.476;2023-02-19T06:57:58;12.90;;;2.40;;
72920;SDS011;61064;51.654;5.476;2023-02-19T07:00:23;14.30;;;2.50;;
72920;SDS011;61064;51.654;5.476;2023-02-19T07:02:49;14.97;;;2.27;;
72920;SDS011;61064;51.654;5.476;2023-02-19T07:05:20;15.95;;;2.72;;
72920;SDS011;61064;51.654;5.476;2023-02-19T07:07:46;11.57;;;2.50;;
72920;SDS011;61064;51.654;5.476;2023-02-19T07:10:11;13.43;;;3.10;;
72920;SDS011;61064;51.654;5.476;2023-02-19T07:12:37;13.90;;;2.70;;
72920;SDS011;61064;51.654;5.476;2023-02-19T07:15:02;13.87;;;3.00;;
72920;SDS011;61064;51.654;5.476;2023-02-19T07:17:28;18.92;;;3.63;;
72920;SDS011;61064;51.654;5.476;2023-02-19T07:19:53;14.77;;;2.87;;
72920;SDS011;61064;51.654;5.476;2023-02-19T07:22:18;19.07;;;3.67;;
72920;SDS011;61064;51.654;5.476;2023-02-19T07:24:44;13.77;;;3.47;;
72920;SDS011;61064;51.654;5.476;2023-02-19T07:27:09;11.80;;;3.70;;
72920;SDS011;61064;51.654;5.476;2023-02-19T07:29:34;13.90;;;3.50;;
72920;SDS011;61064;51.654;5.476;2023-02-19T07:32:00;12.60;;;4.22;;
72920;SDS011;61064;51.654;5.476;2023-02-19T07:34:25;19.63;;;4.47;;
72920;SDS011;61064;51.654;5.476;2023-02-19T07:36:51;15.85;;;4.00;;
72920;SDS011;61064;51.654;5.476;2023-02-19T07:39:17;12.87;;;3.90;;
72920;SDS011;61064;51.654;5.476;2023-02-19T07:41:42;17.23;;;4.73;;
72920;SDS011;61064;51.654;5.476;2023-02-19T07:44:07;15.17;;;4.73;;
72920;SDS011;61064;51.654;5.476;2023-02-19T07:46:33;17.83;;;4.65;;
72920;SDS011;61064;51.654;5.476;2023-02-19T07:48:58;19.20;;;4.90;;
72920;SDS011;61064;51.654;5.476;2023-02-19T07:51:24;15.10;;;4.77;;
72920;SDS011;61064;51.654;5.476;2023-02-19T07:53:49;14.07;;;4.77;;
72920;SDS011;61064;51.654;5.476;2023-02-19T07:56:15;18.45;;;4.75;;
72920;SDS011;61064;51.654;5.476;2023-02-19T07:58:40;16.97;;;4.90;;
72920;SDS011;61064;51.654;5.476;2023-02-19T08:01:07;15.93;;;4.77;;
72920;SDS011;61064;51.654;5.476;2023-02-19T08:03:33;17.73;;;5.15;;
72920;SDS011;61064;51.654;5.476;2023-02-19T08:05:59;18.55;;;6.18;;
72920;SDS011;61064;51.654;5.476;2023-02-19T08:08:25;18.60;;;6.07;;
72920;SDS011;61064;51.654;5.476;2023-02-19T08:10:50;16.30;;;5.90;;
72920;SDS011;61064;51.654;5.476;2023-02-19T08:13:34;15.27;;;5.90;;
72920;SDS011;61064;51.654;5.476;2023-02-19T08:18:30;15.27;;;5.47;;
72920;SDS011;61064;51.654;5.476;2023-02-19T08:20:57;17.13;;;6.10;;
72920;SDS011;61064;51.654;5.476;2023-02-19T08:23:23;13.93;;;4.97;;
72920;SDS011;61064;51.654;5.476;2023-02-19T08:25:50;15.33;;;6.20;;
72920;SDS011;61064;51.654;5.476;2023-02-19T08:28:16;18.33;;;5.72;;
72920;SDS011;61064;51.654;5.476;2023-02-19T08:30:44;13.77;;;5.57;;
72920;SDS011;61064;51.654;5.476;2023-02-19T08:33:10;12.63;;;5.35;;
72920;SDS011;61064;51.654;5.476;2023-02-19T08:35:38;18.08;;;5.32;;
72920;SDS011;61064;51.654;5.476;2023-02-19T08:38:04;15.70;;;5.07;;
72920;SDS011;61064;51.654;5.476;2023-02-19T08:40:31;14.85;;;6.10;;
72920;SDS011;61064;51.654;5.476;2023-02-19T08:43:04;14.75;;;5.43;;
72920;SDS011;61064;51.654;5.476;2023-02-19T08:45:30;16.47;;;6.07;;
72920;SDS011;61064;51.654;5.476;2023-02-19T08:47:56;18.70;;;6.75;;
72920;SDS011;61064;51.654;5.476;2023-02-19T08:50:22;18.50;;;6.37;;
72920;SDS011;61064;51.654;5.476;2023-02-19T08:52:47;17.65;;;6.47;;
72920;SDS011;61064;51.654;5.476;2023-02-19T08:55:13;15.73;;;6.40;;
72920;SDS011;61064;51.654;5.476;2023-02-19T08:57:38;15.87;;;5.70;;
72920;SDS011;61064;51.654;5.476;2023-02-19T09:00:04;14.03;;;5.13;;
72920;SDS011;61064;51.654;5.476;2023-02-19T09:02:31;17.90;;;5.97;;
72920;SDS011;61064;51.654;5.476;2023-02-19T09:04:56;15.57;;;5.90;;
72920;SDS011;61064;51.654;5.476;2023-02-19T09:07:22;14.73;;;5.53;;
72920;SDS011;61064;51.654;5.476;2023-02-19T09:09:47;12.67;;;4.53;;
72920;SDS011;61064;51.654;5.476;2023-02-19T09:12:12;13.83;;;4.17;;
72920;SDS011;61064;51.654;5.476;2023-02-19T09:14:38;12.35;;;5.30;;
72920;SDS011;61064;51.654;5.476;2023-02-19T09:17:04;13.23;;;4.23;;
72920;SDS011;61064;51.654;5.476;2023-02-19T09:19:31;9.63;;;3.40;;
72920;SDS011;61064;51.654;5.476;2023-02-19T09:21:57;9.15;;;3.75;;
72920;SDS011;61064;51.654;5.476;2023-02-19T09:24:23;12.53;;;3.70;;
72920;SDS011;61064;51.654;5.476;2023-02-19T09:26:49;12.13;;;4.07;;
72920;SDS011;61064;51.654;5.476;2023-02-19T09:29:15;10.07;;;3.50;;
72920;SDS011;61064;51.654;5.476;2023-02-19T09:31:41;10.17;;;3.37;;
72920;SDS011;61064;51.654;5.476;2023-02-19T09:34:06;12.60;;;3.50;;
72920;SDS011;61064;51.654;5.476;2023-02-19T09:36:32;10.98;;;3.10;;
72920;SDS011;61064;51.654;5.476;2023-02-19T09:38:57;10.37;;;3.00;;
72920;SDS011;61064;51.654;5.476;2023-02-19T09:43:58;11.75;;;3.50;;
72920;SDS011;61064;51.654;5.476;2023-02-19T09:46:29;16.00;;;6.00;;
72920;SDS011;61064;51.654;5.476;2023-02-19T09:49:04;10.82;;;3.38;;
72920;SDS011;61064;51.654;5.476;2023-02-19T09:51:35;9.63;;;2.58;;
72920;SDS011;61064;51.654;5.476;2023-02-19T09:54:04;8.63;;;2.67;;
72920;SDS011;61064;51.654;5.476;2023-02-19T09:56:34;8.30;;;2.70;;
72920;SDS011;61064;51.654;5.476;2023-02-19T09:59:00;8.87;;;2.77;;
72920;SDS011;61064;51.654;5.476;2023-02-19T10:01:27;13.97;;;2.83;;
72920;SDS011;61064;51.654;5.476;2023-02-19T10:03:57;9.35;;;2.60;;
72920;SDS011;61064;51.654;5.476;2023-02-19T10:06:24;10.63;;;2.47;;
72920;SDS011;61064;51.654;5.476;2023-02-19T10:08:55;8.80;;;2.50;;
72920;SDS011;61064;51.654;5.476;2023-02-19T10:11:41;11.25;;;2.60;;
72920;SDS011;61064;51.654;5.476;2023-02-19T10:14:07;11.50;;;2.53;;
72920;SDS011;61064;51.654;5.476;2023-02-19T10:16:39;9.98;;;2.58;;
72920;SDS011;61064;51.654;5.476;2023-02-19T10:19:17;10.98;;;2.28;;
72920;SDS011;61064;51.654;5.476;2023-02-19T10:21:42;8.68;;;1.90;;
72920;SDS011;61064;51.654;5.476;2023-02-19T10:24:11;9.60;;;2.10;;
72920;SDS011;61064;51.654;5.476;2023-02-19T10:26:44;9.27;;;2.00;;
72920;SDS011;61064;51.654;5.476;2023-02-19T10:29:10;11.23;;;2.03;;
72920;SDS011;61064;51.654;5.476;2023-02-19T10:31:35;10.68;;;3.05;;
72920;SDS011;61064;51.654;5.476;2023-02-19T10:34:01;12.03;;;2.60;;
72920;SDS011;61064;51.654;5.476;2023-02-19T10:36:40;12.50;;;2.70;;
72920;SDS011;61064;51.654;5.476;2023-02-19T10:41:47;10.30;;;2.42;;
72920;SDS011;61064;51.654;5.476;2023-02-19T10:44:20;10.45;;;2.75;;
72920;SDS011;61064;51.654;5.476;2023-02-19T10:46:49;11.13;;;3.25;;
72920;SDS011;61064;51.654;5.476;2023-02-19T10:52:15;8.97;;;2.03;;
72920;SDS011;61064;51.654;5.476;2023-02-19T10:54:42;11.00;;;2.55;;
72920;SDS011;61064;51.654;5.476;2023-02-19T11:02:22;11.05;;;2.20;;
72920;SDS011;61064;51.654;5.476;2023-02-19T11:05:34;9.73;;;2.00;;
72920;SDS011;61064;51.654;5.476;2023-02-19T11:12:48;7.78;;;2.20;;
72920;SDS011;61064;51.654;5.476;2023-02-19T11:15:31;8.27;;;2.10;;
72920;SDS011;61064;51.654;5.476;2023-02-19T11:18:01;9.60;;;2.50;;
72920;SDS011;61064;51.654;5.476;2023-02-19T11:20:30;7.85;;;2.40;;
72920;SDS011;61064;51.654;5.476;2023-02-19T11:23:10;10.13;;;2.60;;
72920;SDS011;61064;51.654;5.476;2023-02-19T11:25:50;8.98;;;2.45;;
72920;SDS011;61064;51.654;5.476;2023-02-19T11:28:39;9.75;;;1.92;;
72920;SDS011;61064;51.654;5.476;2023-02-19T11:31:23;11.90;;;2.33;;
72920;SDS011;61064;51.654;5.476;2023-02-19T11:36:44;6.78;;;1.60;;
72920;SDS011;61064;51.654;5.476;2023-02-19T12:12:21;7.20;;;2.22;;
72920;SDS011;61064;51.654;5.476;2023-02-19T12:22:28;9.67;;;2.80;;
72920;SDS011;61064;51.654;5.476;2023-02-19T12:36:15;9.00;;;2.90;;
72920;SDS011;61064;51.654;5.476;2023-02-19T12:39:15;8.65;;;3.03;;
72920;SDS011;61064;51.654;5.476;2023-02-19T12:44:58;8.75;;;2.53;;
72920;SDS011;61064;51.654;5.476;2023-02-19T12:47:32;6.20;;;1.80;;
72920;SDS011;61064;51.654;5.476;2023-02-19T12:52:38;3.97;;;0.70;;
72920;SDS011;61064;51.654;5.476;2023-02-19T12:55:32;3.88;;;0.70;;
72920;SDS011;61064;51.654;5.476;2023-02-19T12:58:05;2.50;;;0.60;;
72920;SDS011;61064;51.654;5.476;2023-02-19T13:00:39;2.72;;;0.60;;
72920;SDS011;61064;51.654;5.476;2023-02-19T13:03:10;4.63;;;0.70;;
72920;SDS011;61064;51.654;5.476;2023-02-19T13:05:48;4.25;;;0.55;;
72920;SDS011;61064;51.654;5.476;2023-02-19T13:08:56;3.40;;;0.60;;
72920;SDS011;61064;51.654;5.476;2023-02-19T13:14:41;3.95;;;0.50;;
72920;SDS011;61064;51.654;5.476;2023-02-19T13:17:35;4.50;;;0.90;;
72920;SDS011;61064;51.654;5.476;2023-02-19T13:22:56;5.18;;;0.65;;
72920;SDS011;61064;51.654;5.476;2023-02-19T13:28:41;4.07;;;0.80;;
72920;SDS011;61064;51.654;5.476;2023-02-19T13:37:20;3.30;;;0.75;;
72920;SDS011;61064;51.654;5.476;2023-02-19T13:39:51;6.50;;;0.88;;
72920;SDS011;61064;51.654;5.476;2023-02-19T13:42:25;5.30;;;1.10;;
72920;SDS011;61064;51.654;5.476;2023-02-19T13:44:55;6.37;;;1.40;;
72920;SDS011;61064;51.654;5.476;2023-02-19T13:50:11;7.43;;;1.80;;
72920;SDS011;61064;51.654;5.476;2023-02-19T13:52:42;9.55;;;2.67;;
72920;SDS011;61064;51.654;5.476;2023-02-19T14:01:07;6.78;;;2.20;;
72920;SDS011;61064;51.654;5.476;2023-02-19T14:06:11;7.28;;;1.80;;
72920;SDS011;61064;51.654;5.476;2023-02-19T14:08:51;6.20;;;1.60;;
72920;SDS011;61064;51.654;5.476;2023-02-19T14:20:00;5.22;;;1.02;;
72920;SDS011;61064;51.654;5.476;2023-02-19T14:33:08;6.78;;;2.00;;
72920;SDS011;61064;51.654;5.476;2023-02-19T14:35:37;6.90;;;1.70;;
72920;SDS011;61064;51.654;5.476;2023-02-19T14:38:05;9.05;;;1.80;;
72920;SDS011;61064;51.654;5.476;2023-02-19T14:40:36;7.45;;;2.00;;
72920;SDS011;61064;51.654;5.476;2023-02-19T14:43:05;12.27;;;3.53;;
72920;SDS011;61064;51.654;5.476;2023-02-19T14:45:38;7.65;;;2.35;;
72920;SDS011;61064;51.654;5.476;2023-02-19T14:48:11;9.03;;;2.27;;
72920;SDS011;61064;51.654;5.476;2023-02-19T14:50:42;8.27;;;2.30;;
72920;SDS011;61064;51.654;5.476;2023-02-19T14:53:13;11.85;;;2.58;;
72920;SDS011;61064;51.654;5.476;2023-02-19T14:55:40;8.60;;;2.20;;
72920;SDS011;61064;51.654;5.476;2023-02-19T14:58:09;7.25;;;2.30;;
72920;SDS011;61064;51.654;5.476;2023-02-19T15:00:40;9.40;;;2.00;;
72920;SDS011;61064;51.654;5.476;2023-02-19T15:03:06;8.77;;;2.03;;
72920;SDS011;61064;51.654;5.476;2023-02-19T15:05:52;9.32;;;2.38;;
72920;SDS011;61064;51.654;5.476;2023-02-19T15:08:21;8.38;;;2.55;;
72920;SDS011;61064;51.654;5.476;2023-02-19T15:10:53;7.20;;;2.50;;
72920;SDS011;61064;51.654;5.476;2023-02-19T15:13:21;7.70;;;2.53;;
72920;SDS011;61064;51.654;5.476;2023-02-19T15:15:51;6.88;;;2.40;;
72920;SDS011;61064;51.654;5.476;2023-02-19T15:18:20;6.97;;;2.28;;
72920;SDS011;61064;51.654;5.476;2023-02-19T15:20:48;10.48;;;1.95;;
72920;SDS011;61064;51.654;5.476;2023-02-19T15:23:17;9.38;;;2.35;;
72920;SDS011;61064;51.654;5.476;2023-02-19T15:25:47;7.73;;;2.00;;
72920;SDS011;61064;51.654;5.476;2023-02-19T15:30:48;6.65;;;1.98;;
72920;SDS011;61064;51.654;5.476;2023-02-19T15:33:15;10.07;;;1.98;;
72920;SDS011;61064;51.654;5.476;2023-02-19T15:35:46;6.90;;;2.05;;
72920;SDS011;61064;51.654;5.476;2023-02-19T15:38:15;7.50;;;1.73;;
72920;SDS011;61064;51.654;5.476;2023-02-19T15:40:44;6.75;;;1.83;;
72920;SDS011;61064;51.654;5.476;2023-02-19T15:43:27;6.57;;;2.00;;
72920;SDS011;61064;51.654;5.476;2023-02-19T15:45:55;7.13;;;2.20;;
72920;SDS011;61064;51.654;5.476;2023-02-19T15:48:25;6.88;;;2.25;;
72920;SDS011;61064;51.654;5.476;2023-02-19T15:50:57;7.30;;;2.30;;
72920;SDS011;61064;51.654;5.476;2023-02-19T15:53:32;7.40;;;2.22;;
72920;SDS011;61064;51.654;5.476;2023-02-19T15:56:08;9.23;;;2.92;;
72920;SDS011;61064;51.654;5.476;2023-02-19T15:58:41;6.50;;;2.20;;
72920;SDS011;61064;51.654;5.476;2023-02-19T16:03:43;7.50;;;2.75;;
72920;SDS011;61064;51.654;5.476;2023-02-19T16:06:13;7.23;;;2.50;;
72920;SDS011;61064;51.654;5.476;2023-02-19T16:08:41;9.55;;;3.25;;
72920;SDS011;61064;51.654;5.476;2023-02-19T16:17:14;9.27;;;3.50;;
72920;SDS011;61064;51.654;5.476;2023-02-19T16:20:03;8.10;;;2.43;;
72920;SDS011;61064;51.654;5.476;2023-02-19T16:22:29;8.00;;;2.40;;
72920;SDS011;61064;51.654;5.476;2023-02-19T16:24:59;11.38;;;3.97;;
72920;SDS011;61064;51.654;5.476;2023-02-19T16:29:52;8.87;;;3.20;;
72920;SDS011;61064;51.654;5.476;2023-02-19T16:32:18;13.05;;;5.10;;
72920;SDS011;61064;51.654;5.476;2023-02-19T16:34:47;14.23;;;4.90;;
72920;SDS011;61064;51.654;5.476;2023-02-19T16:42:32;7.17;;;2.40;;
72920;SDS011;61064;51.654;5.476;2023-02-19T16:45:02;7.97;;;2.35;;
72920;SDS011;61064;51.654;5.476;2023-02-19T16:47:31;7.10;;;2.15;;
72920;SDS011;61064;51.654;5.476;2023-02-19T16:49:59;6.60;;;2.15;;
72920;SDS011;61064;51.654;5.476;2023-02-19T16:52:27;7.27;;;2.33;;
72920;SDS011;61064;51.654;5.476;2023-02-19T16:54:53;8.43;;;2.70;;
72920;SDS011;61064;51.654;5.476;2023-02-19T16:57:18;6.67;;;2.23;;
72920;SDS011;61064;51.654;5.476;2023-02-19T16:59:44;7.13;;;2.58;;
72920;SDS011;61064;51.654;5.476;2023-02-19T17:02:14;8.13;;;2.42;;
72920;SDS011;61064;51.654;5.476;2023-02-19T17:04:43;7.63;;;2.30;;
72920;SDS011;61064;51.654;5.476;2023-02-19T17:07:11;8.38;;;2.60;;
72920;SDS011;61064;51.654;5.476;2023-02-19T17:09:39;7.57;;;2.43;;
72920;SDS011;61064;51.654;5.476;2023-02-19T17:12:09;7.53;;;2.22;;
72920;SDS011;61064;51.654;5.476;2023-02-19T17:14:35;6.87;;;2.00;;
72920;SDS011;61064;51.654;5.476;2023-02-19T17:17:02;8.07;;;2.40;;
72920;SDS011;61064;51.654;5.476;2023-02-19T17:19:29;5.83;;;2.00;;
72920;SDS011;61064;51.654;5.476;2023-02-19T17:21:55;6.95;;;2.20;;
72920;SDS011;61064;51.654;5.476;2023-02-19T17:24:22;7.93;;;2.15;;
72920;SDS011;61064;51.654;5.476;2023-02-19T17:26:48;7.20;;;2.70;;
72920;SDS011;61064;51.654;5.476;2023-02-19T17:29:14;7.50;;;2.63;;
72920;SDS011;61064;51.654;5.476;2023-02-19T17:31:42;7.40;;;2.25;;
72920;SDS011;61064;51.654;5.476;2023-02-19T17:34:07;7.20;;;2.20;;
72920;SDS011;61064;51.654;5.476;2023-02-19T17:36:32;8.40;;;2.40;;
72920;SDS011;61064;51.654;5.476;2023-02-19T17:38:59;7.75;;;2.47;;
72920;SDS011;61064;51.654;5.476;2023-02-19T17:41:26;6.18;;;2.00;;